createdAt,value
2018-05-24T00:00:01.513Z,1015.17
2018-05-24T00:00:37.050Z,1015.15
2018-05-24T00:01:12.290Z,1015.19
2018-05-24T00:01:47.589Z,1015.17
2018-05-24T00:02:24.216Z,1015.16
2018-05-24T00:02:59.895Z,1015.17
2018-05-24T00:03:35.628Z,1015.19
2018-05-24T00:04:10.849Z,1015.21
2018-05-24T00:04:47.497Z,1015.20
2018-05-24T00:05:23.173Z,1015.18
2018-05-24T00:05:58.399Z,1015.20
2018-05-24T00:06:33.737Z,1015.26
2018-05-24T00:07:08.975Z,1015.20
2018-05-24T00:07:44.299Z,1015.21
2018-05-24T00:08:19.613Z,1015.22
2018-05-24T00:08:55.005Z,1015.22
2018-05-24T00:09:30.388Z,1015.19
2018-05-24T00:10:05.592Z,1015.19
2018-05-24T00:10:41.579Z,1015.22
2018-05-24T00:11:17.005Z,1015.18
2018-05-24T00:11:52.429Z,1015.20
2018-05-24T00:12:27.857Z,1015.26
2018-05-24T00:13:03.194Z,1015.24
2018-05-24T00:13:38.688Z,1015.24
2018-05-24T00:14:14.407Z,1015.21
2018-05-24T00:14:49.720Z,1015.21
2018-05-24T00:15:24.990Z,1015.26
2018-05-24T00:16:00.303Z,1015.27
2018-05-24T00:16:35.538Z,1015.23
2018-05-24T00:17:11.053Z,1015.24
2018-05-24T00:17:46.691Z,1015.23
2018-05-24T00:18:22.180Z,1015.19
2018-05-24T00:18:57.524Z,1015.22
2018-05-24T00:19:32.844Z,1015.23
2018-05-24T00:20:08.308Z,1015.23
2018-05-24T00:20:45.823Z,1015.24
2018-05-24T00:21:27.480Z,1015.25
2018-05-24T00:22:02.887Z,1015.24
2018-05-24T00:22:38.197Z,1015.26
2018-05-24T00:23:13.482Z,1015.21
2018-05-24T00:23:49.103Z,1015.24
2018-05-24T00:24:24.600Z,1015.23
2018-05-24T00:25:00.017Z,1015.24
2018-05-24T00:25:35.438Z,1015.21
2018-05-24T00:26:10.862Z,1015.24
2018-05-24T00:26:46.171Z,1015.24
2018-05-24T00:27:22.106Z,1015.20
2018-05-24T00:27:57.506Z,1015.23
2018-05-24T00:28:32.855Z,1015.22
2018-05-24T00:29:08.235Z,1015.22
2018-05-24T00:29:43.568Z,1015.18
2018-05-24T00:30:19.004Z,1015.18
2018-05-24T00:30:54.644Z,1015.21
2018-05-24T00:31:30.070Z,1015.16
2018-05-24T00:32:06.533Z,1015.20
2018-05-24T00:32:41.847Z,1015.18
2018-05-24T00:33:17.296Z,1015.19
2018-05-24T00:33:52.506Z,1015.19
2018-05-24T00:34:27.854Z,1015.14
2018-05-24T00:35:03.375Z,1015.14
2018-05-24T00:35:39.033Z,1015.16
2018-05-24T00:36:14.725Z,1015.12
2018-05-24T00:36:50.160Z,1015.15
2018-05-24T00:37:27.261Z,1015.16
2018-05-24T00:38:02.680Z,1015.11
2018-05-24T00:38:37.908Z,1015.14
2018-05-24T00:39:13.157Z,1015.16
2018-05-24T00:39:48.555Z,1015.13
2018-05-24T00:40:23.790Z,1015.12
2018-05-24T00:40:59.468Z,1015.10
2018-05-24T00:41:34.912Z,1015.11
2018-05-24T00:42:10.461Z,1015.10
2018-05-24T00:42:45.812Z,1015.11
2018-05-24T00:43:21.105Z,1015.11
2018-05-24T00:43:56.878Z,1015.12
2018-05-24T00:44:32.718Z,1015.12
2018-05-24T00:45:08.181Z,1015.12
2018-05-24T00:45:43.714Z,1015.15
2018-05-24T00:46:19.174Z,1015.14
2018-05-24T00:46:54.498Z,1015.13
2018-05-24T00:47:30.144Z,1015.15
2018-05-24T00:48:05.642Z,1015.09
2018-05-24T00:48:41.410Z,1015.12
2018-05-24T00:49:16.795Z,1015.13
2018-05-24T00:49:52.342Z,1015.10
2018-05-24T00:50:27.564Z,1015.10
2018-05-24T00:51:03.018Z,1015.10
2018-05-24T00:51:38.118Z,1015.09
2018-05-24T00:52:14.400Z,1015.09
2018-05-24T00:52:50.382Z,1015.10
2018-05-24T00:53:25.974Z,1015.10
2018-05-24T00:54:01.317Z,1015.08
2018-05-24T00:54:36.568Z,1015.06
2018-05-24T00:55:11.864Z,1015.08
2018-05-24T00:55:47.335Z,1015.05
2018-05-24T00:56:22.840Z,1015.09
2018-05-24T00:56:58.249Z,1015.08
2018-05-24T00:57:33.867Z,1015.04
2018-05-24T00:58:09.207Z,1015.04
2018-05-24T00:58:45.015Z,1015.09
2018-05-24T00:59:20.560Z,1015.03
2018-05-24T00:59:56.139Z,1015.03
2018-05-24T01:00:31.511Z,1015.00
2018-05-24T01:01:06.927Z,1015.02
2018-05-24T01:01:42.351Z,1015.00
2018-05-24T01:02:17.675Z,1015.00
2018-05-24T01:02:53.090Z,1015.00
2018-05-24T01:03:28.309Z,1015.01
2018-05-24T01:04:03.565Z,1015.00
2018-05-24T01:04:38.870Z,1014.98
2018-05-24T01:05:14.434Z,1014.97
2018-05-24T01:05:49.851Z,1015.03
2018-05-24T01:06:25.092Z,1015.05
2018-05-24T01:07:00.211Z,1015.01
2018-05-24T01:07:35.564Z,1015.03
2018-05-24T01:08:11.111Z,1014.98
2018-05-24T01:08:46.751Z,1014.97
2018-05-24T01:09:22.143Z,1015.00
2018-05-24T01:09:57.574Z,1014.96
2018-05-24T01:10:32.947Z,1014.94
2018-05-24T01:11:08.381Z,1014.98
2018-05-24T01:11:43.901Z,1014.98
2018-05-24T01:12:20.141Z,1014.97
2018-05-24T01:12:55.767Z,1014.98
2018-05-24T01:13:31.203Z,1014.97
2018-05-24T01:14:06.500Z,1014.96
2018-05-24T01:14:41.720Z,1014.98
2018-05-24T01:15:17.051Z,1014.96
2018-05-24T01:15:52.408Z,1014.98
2018-05-24T01:16:27.571Z,1014.98
2018-05-24T01:17:03.520Z,1014.98
2018-05-24T01:17:38.923Z,1014.97
2018-05-24T01:18:14.651Z,1014.96
2018-05-24T01:18:49.868Z,1014.96
2018-05-24T01:19:25.402Z,1014.97
2018-05-24T01:20:00.906Z,1014.99
2018-05-24T01:20:36.411Z,1014.94
2018-05-24T01:21:11.690Z,1014.96
2018-05-24T01:21:47.304Z,1014.95
2018-05-24T01:22:22.736Z,1014.92
2018-05-24T01:22:57.997Z,1014.91
2018-05-24T01:23:33.566Z,1014.92
2018-05-24T01:24:09.037Z,1014.94
2018-05-24T01:24:44.640Z,1014.94
2018-05-24T01:25:19.889Z,1014.94
2018-05-24T01:25:55.249Z,1014.89
2018-05-24T01:26:30.386Z,1014.91
2018-05-24T01:27:05.763Z,1014.92
2018-05-24T01:27:41.201Z,1014.92
2018-05-24T01:28:16.288Z,1014.94
2018-05-24T01:28:51.435Z,1014.94
2018-05-24T01:29:26.934Z,1014.92
2018-05-24T01:30:02.447Z,1014.92
2018-05-24T01:30:38.098Z,1014.89
2018-05-24T01:31:13.436Z,1014.94
2018-05-24T01:31:48.732Z,1014.88
2018-05-24T01:32:27.450Z,1014.91
2018-05-24T01:33:02.671Z,1014.93
2018-05-24T01:33:37.853Z,1014.89
2018-05-24T01:34:13.273Z,1014.86
2018-05-24T01:34:49.109Z,1014.84
2018-05-24T01:35:24.653Z,1014.89
2018-05-24T01:35:59.972Z,1014.91
2018-05-24T01:36:35.332Z,1014.84
2018-05-24T01:37:10.863Z,1014.86
2018-05-24T01:37:46.183Z,1014.84
2018-05-24T01:38:21.651Z,1014.86
2018-05-24T01:38:57.154Z,1014.86
2018-05-24T01:39:32.785Z,1014.86
2018-05-24T01:40:08.406Z,1014.84
2018-05-24T01:40:44.267Z,1014.85
2018-05-24T01:41:20.132Z,1014.86
2018-05-24T01:41:55.250Z,1014.85
2018-05-24T01:42:30.753Z,1014.83
2018-05-24T01:43:06.004Z,1014.81
2018-05-24T01:43:41.500Z,1014.84
2018-05-24T01:44:16.908Z,1014.82
2018-05-24T01:44:52.612Z,1014.84
2018-05-24T01:45:27.873Z,1014.81
2018-05-24T01:46:03.207Z,1014.86
2018-05-24T01:46:39.181Z,1014.83
2018-05-24T01:47:14.593Z,1014.86
2018-05-24T01:47:50.359Z,1014.83
2018-05-24T01:48:26.205Z,1014.83
2018-05-24T01:49:01.770Z,1014.82
2018-05-24T01:49:37.080Z,1014.82
2018-05-24T01:50:12.315Z,1014.86
2018-05-24T01:50:50.648Z,1014.84
2018-05-24T01:51:26.177Z,1014.83
2018-05-24T01:52:01.884Z,1014.84
2018-05-24T01:52:37.449Z,1014.81
2018-05-24T01:53:13.000Z,1014.82
2018-05-24T01:53:48.422Z,1014.81
2018-05-24T01:54:23.749Z,1014.81
2018-05-24T01:54:59.500Z,1014.81
2018-05-24T01:55:35.145Z,1014.81
2018-05-24T01:56:10.554Z,1014.82
2018-05-24T01:56:48.654Z,1014.81
2018-05-24T01:57:24.102Z,1014.76
2018-05-24T01:58:00.781Z,1014.76
2018-05-24T01:58:36.423Z,1014.78
2018-05-24T01:59:11.998Z,1014.78
2018-05-24T01:59:47.008Z,1014.75
2018-05-24T02:00:27.044Z,1014.74
2018-05-24T02:01:02.191Z,1014.75
2018-05-24T02:01:38.407Z,1014.73
2018-05-24T02:02:13.729Z,1014.73
2018-05-24T02:02:51.740Z,1014.78
2018-05-24T02:03:26.965Z,1014.77
2018-05-24T02:04:02.177Z,1014.73
2018-05-24T02:04:37.505Z,1014.76
2018-05-24T02:05:12.814Z,1014.69
2018-05-24T02:05:48.195Z,1014.70
2018-05-24T02:06:23.808Z,1014.70
2018-05-24T02:06:59.154Z,1014.69
2018-05-24T02:07:34.862Z,1014.74
2018-05-24T02:08:10.281Z,1014.68
2018-05-24T02:08:45.478Z,1014.70
2018-05-24T02:09:21.013Z,1014.67
2018-05-24T02:09:56.552Z,1014.70
2018-05-24T02:10:32.257Z,1014.68
2018-05-24T02:11:07.582Z,1014.68
2018-05-24T02:11:43.387Z,1014.67
2018-05-24T02:12:18.681Z,1014.69
2018-05-24T02:12:53.912Z,1014.70
2018-05-24T02:13:29.565Z,1014.66
2018-05-24T02:14:04.712Z,1014.73
2018-05-24T02:14:40.658Z,1014.70
2018-05-24T02:15:16.014Z,1014.70
2018-05-24T02:15:51.333Z,1014.70
2018-05-24T02:16:27.947Z,1014.70
2018-05-24T02:17:03.263Z,1014.73
2018-05-24T02:17:38.711Z,1014.68
2018-05-24T02:18:14.145Z,1014.70
2018-05-24T02:18:50.378Z,1014.71
2018-05-24T02:19:25.696Z,1014.69
2018-05-24T02:20:01.080Z,1014.67
2018-05-24T02:20:37.126Z,1014.68
2018-05-24T02:21:12.583Z,1014.72
2018-05-24T02:21:47.972Z,1014.72
2018-05-24T02:22:23.506Z,1014.72
2018-05-24T02:22:58.731Z,1014.70
2018-05-24T02:23:34.057Z,1014.72
2018-05-24T02:24:09.556Z,1014.70
2018-05-24T02:24:44.916Z,1014.70
2018-05-24T02:25:20.360Z,1014.73
2018-05-24T02:25:55.588Z,1014.71
2018-05-24T02:26:31.452Z,1014.71
2018-05-24T02:27:08.316Z,1014.69
2018-05-24T02:27:43.614Z,1014.66
2018-05-24T02:28:19.366Z,1014.70
2018-05-24T02:28:54.700Z,1014.70
2018-05-24T02:29:30.414Z,1014.68
2018-05-24T02:30:05.779Z,1014.69
2018-05-24T02:30:41.462Z,1014.68
2018-05-24T02:31:18.777Z,1014.67
2018-05-24T02:31:54.499Z,1014.70
2018-05-24T02:32:29.722Z,1014.70
2018-05-24T02:33:04.967Z,1014.71
2018-05-24T02:33:40.190Z,1014.68
2018-05-24T02:34:15.824Z,1014.68
2018-05-24T02:34:51.514Z,1014.69
2018-05-24T02:35:26.922Z,1014.68
2018-05-24T02:36:02.199Z,1014.64
2018-05-24T02:36:41.086Z,1014.68
2018-05-24T02:37:16.316Z,1014.66
2018-05-24T02:37:51.661Z,1014.66
2018-05-24T02:38:30.866Z,1014.64
2018-05-24T02:39:06.509Z,1014.65
2018-05-24T02:39:41.819Z,1014.64
2018-05-24T02:40:17.218Z,1014.66
2018-05-24T02:40:55.059Z,1014.63
2018-05-24T02:41:31.190Z,1014.66
2018-05-24T02:42:06.509Z,1014.64
2018-05-24T02:42:45.105Z,1014.60
2018-05-24T02:43:20.437Z,1014.59
2018-05-24T02:43:55.773Z,1014.57
2018-05-24T02:44:31.084Z,1014.62
2018-05-24T02:45:06.520Z,1014.60
2018-05-24T02:45:42.354Z,1014.58
2018-05-24T02:46:21.000Z,1014.59
2018-05-24T02:46:56.920Z,1014.61
2018-05-24T02:47:32.663Z,1014.60
2018-05-24T02:48:08.273Z,1014.59
2018-05-24T02:48:44.017Z,1014.57
2018-05-24T02:49:19.451Z,1014.59
2018-05-24T02:49:54.968Z,1014.58
2018-05-24T02:50:30.634Z,1014.57
2018-05-24T02:51:06.766Z,1014.57
2018-05-24T02:51:43.066Z,1014.59
2018-05-24T02:52:18.415Z,1014.59
2018-05-24T02:52:54.649Z,1014.61
2018-05-24T02:53:30.090Z,1014.57
2018-05-24T02:54:05.503Z,1014.58
2018-05-24T02:54:40.626Z,1014.58
2018-05-24T02:55:16.048Z,1014.58
2018-05-24T02:55:51.491Z,1014.59
2018-05-24T02:56:29.928Z,1014.59
2018-05-24T02:57:06.300Z,1014.55
2018-05-24T02:57:41.898Z,1014.55
2018-05-24T02:58:17.335Z,1014.53
2018-05-24T02:58:52.642Z,1014.58
2018-05-24T02:59:28.287Z,1014.54
2018-05-24T03:00:05.672Z,1014.52
2018-05-24T03:00:41.018Z,1014.54
2018-05-24T03:01:16.430Z,1014.57
2018-05-24T03:01:52.058Z,1014.55
2018-05-24T03:02:27.220Z,1014.54
2018-05-24T03:03:02.640Z,1014.56
2018-05-24T03:03:37.737Z,1014.54
2018-05-24T03:04:13.119Z,1014.54
2018-05-24T03:04:51.663Z,1014.54
2018-05-24T03:05:27.113Z,1014.54
2018-05-24T03:06:02.539Z,1014.50
2018-05-24T03:06:37.871Z,1014.51
2018-05-24T03:07:12.996Z,1014.51
2018-05-24T03:07:48.222Z,1014.50
2018-05-24T03:08:23.723Z,1014.53
2018-05-24T03:08:59.171Z,1014.52
2018-05-24T03:09:37.283Z,1014.54
2018-05-24T03:10:12.900Z,1014.52
2018-05-24T03:10:51.730Z,1014.51
2018-05-24T03:11:30.470Z,1014.53
2018-05-24T03:12:05.877Z,1014.55
2018-05-24T03:12:41.216Z,1014.55
2018-05-24T03:13:16.492Z,1014.57
2018-05-24T03:13:51.926Z,1014.54
2018-05-24T03:14:27.406Z,1014.52
2018-05-24T03:15:02.557Z,1014.53
2018-05-24T03:15:41.007Z,1014.55
2018-05-24T03:16:19.516Z,1014.55
2018-05-24T03:16:55.110Z,1014.53
2018-05-24T03:17:30.571Z,1014.57
2018-05-24T03:18:05.767Z,1014.54
2018-05-24T03:18:42.542Z,1014.52
2018-05-24T03:19:18.048Z,1014.56
2018-05-24T03:19:53.889Z,1014.56
2018-05-24T03:20:29.518Z,1014.54
2018-05-24T03:21:08.157Z,1014.56
2018-05-24T03:21:43.499Z,1014.56
2018-05-24T03:22:21.636Z,1014.58
2018-05-24T03:22:57.132Z,1014.56
2018-05-24T03:23:34.790Z,1014.58
2018-05-24T03:24:10.086Z,1014.58
2018-05-24T03:24:48.728Z,1014.60
2018-05-24T03:25:24.089Z,1014.58
2018-05-24T03:25:59.461Z,1014.63
2018-05-24T03:26:35.461Z,1014.61
2018-05-24T03:27:10.809Z,1014.61
2018-05-24T03:27:46.222Z,1014.60
2018-05-24T03:28:21.753Z,1014.65
2018-05-24T03:29:01.952Z,1014.59
2018-05-24T03:29:37.405Z,1014.57
2018-05-24T03:30:16.382Z,1014.59
2018-05-24T03:30:51.603Z,1014.58
2018-05-24T03:31:41.606Z,1014.57
2018-05-24T03:32:17.257Z,1014.60
2018-05-24T03:32:52.473Z,1014.56
2018-05-24T03:33:29.016Z,1014.56
2018-05-24T03:34:07.449Z,1014.59
2018-05-24T03:34:42.890Z,1014.56
2018-05-24T03:35:18.436Z,1014.54
2018-05-24T03:35:53.671Z,1014.53
2018-05-24T03:36:29.104Z,1014.51
2018-05-24T03:37:04.444Z,1014.53
2018-05-24T03:37:39.540Z,1014.54
2018-05-24T03:38:18.887Z,1014.55
2018-05-24T03:38:57.299Z,1014.58
2018-05-24T03:39:36.018Z,1014.53
2018-05-24T03:40:11.475Z,1014.57
2018-05-24T03:40:50.748Z,1014.55
2018-05-24T03:41:26.197Z,1014.56
2018-05-24T03:42:01.551Z,1014.54
2018-05-24T03:42:36.883Z,1014.49
2018-05-24T03:43:12.129Z,1014.54
2018-05-24T03:43:51.469Z,1014.55
2018-05-24T03:44:28.116Z,1014.48
2018-05-24T03:45:03.515Z,1014.49
2018-05-24T03:45:40.189Z,1014.49
2018-05-24T03:46:15.773Z,1014.47
2018-05-24T03:46:51.524Z,1014.50
2018-05-24T03:47:27.040Z,1014.50
2018-05-24T03:48:02.766Z,1014.53
2018-05-24T03:48:41.389Z,1014.55
2018-05-24T03:51:55.659Z,1014.53
2018-05-24T03:52:31.184Z,1014.46
2018-05-24T03:53:10.580Z,1014.51
2018-05-24T03:53:45.999Z,1014.47
2018-05-24T03:54:24.283Z,1014.46
2018-05-24T03:55:02.812Z,1014.42
2018-05-24T03:55:41.120Z,1014.42
2018-05-24T03:56:16.372Z,1014.39
2018-05-24T03:56:52.221Z,1014.46
2018-05-24T03:57:27.860Z,1014.43
2018-05-24T03:58:06.151Z,1014.43
2018-05-24T03:58:44.871Z,1014.46
2018-05-24T03:59:20.371Z,1014.43
2018-05-24T03:59:55.808Z,1014.44
2018-05-24T04:00:31.130Z,1014.39
2018-05-24T04:01:06.455Z,1014.41
2018-05-24T04:01:44.953Z,1014.39
2018-05-24T04:02:20.477Z,1014.38
2018-05-24T04:02:55.802Z,1014.38
2018-05-24T04:03:31.227Z,1014.36
2018-05-24T04:04:09.507Z,1014.37
2018-05-24T04:04:50.517Z,1014.36
2018-05-24T04:05:25.933Z,1014.33
2018-05-24T04:06:01.248Z,1014.34
2018-05-24T04:06:37.606Z,1014.35
2018-05-24T04:07:16.235Z,1014.32
2018-05-24T04:07:51.480Z,1014.35
2018-05-24T04:08:26.808Z,1014.32
2018-05-24T04:09:06.145Z,1014.32
2018-05-24T04:09:44.492Z,1014.32
2018-05-24T04:10:20.118Z,1014.34
2018-05-24T04:10:55.754Z,1014.35
2018-05-24T04:11:34.167Z,1014.36
2018-05-24T04:12:09.502Z,1014.37
2018-05-24T04:12:44.922Z,1014.36
2018-05-24T04:13:20.338Z,1014.35
2018-05-24T04:13:58.035Z,1014.35
2018-05-24T04:14:33.540Z,1014.35
2018-05-24T04:15:08.763Z,1014.33
2018-05-24T04:15:44.122Z,1014.34
2018-05-24T04:16:19.727Z,1014.35
2018-05-24T04:16:55.235Z,1014.35
2018-05-24T04:17:30.731Z,1014.33
2018-05-24T04:18:06.041Z,1014.34
2018-05-24T04:18:44.370Z,1014.36
2018-05-24T04:19:20.889Z,1014.35
2018-05-24T04:19:55.990Z,1014.37
2018-05-24T04:20:31.341Z,1014.35
2018-05-24T04:21:06.454Z,1014.38
2018-05-24T04:21:44.928Z,1014.38
2018-05-24T04:22:20.548Z,1014.38
2018-05-24T04:22:56.274Z,1014.37
2018-05-24T04:23:32.393Z,1014.38
2018-05-24T04:24:07.742Z,1014.42
2018-05-24T04:24:42.880Z,1014.41
2018-05-24T04:25:18.436Z,1014.39
2018-05-24T04:25:55.835Z,1014.40
2018-05-24T04:26:31.168Z,1014.38
2018-05-24T04:27:06.421Z,1014.41
2018-05-24T04:27:43.069Z,1014.46
2018-05-24T04:28:18.677Z,1014.47
2018-05-24T04:28:54.707Z,1014.43
2018-05-24T04:29:30.331Z,1014.39
2018-05-24T04:30:05.759Z,1014.42
2018-05-24T04:30:41.566Z,1014.36
2018-05-24T04:31:16.786Z,1014.40
2018-05-24T04:31:52.195Z,1014.36
2018-05-24T04:32:27.405Z,1014.36
2018-05-24T04:33:02.648Z,1014.36
2018-05-24T04:33:37.889Z,1014.33
2018-05-24T04:34:13.198Z,1014.37
2018-05-24T04:34:49.770Z,1014.38
2018-05-24T04:35:25.840Z,1014.36
2018-05-24T04:36:01.145Z,1014.33
2018-05-24T04:36:41.043Z,1014.34
2018-05-24T04:37:16.674Z,1014.33
2018-05-24T04:37:59.464Z,1014.30
2018-05-24T04:38:38.580Z,1014.34
2018-05-24T04:39:13.881Z,1014.33
2018-05-24T04:39:52.295Z,1014.36
2018-05-24T04:40:30.733Z,1014.35
2018-05-24T04:41:06.340Z,1014.33
2018-05-24T04:41:41.980Z,1014.35
2018-05-24T04:42:17.091Z,1014.37
2018-05-24T04:42:52.391Z,1014.35
2018-05-24T04:43:28.158Z,1014.35
2018-05-24T04:44:03.664Z,1014.37
2018-05-24T04:44:39.200Z,1014.35
2018-05-24T04:45:14.749Z,1014.36
2018-05-24T04:45:49.954Z,1014.37
2018-05-24T04:46:28.455Z,1014.38
2018-05-24T04:47:03.575Z,1014.39
2018-05-24T04:47:42.152Z,1014.37
2018-05-24T04:48:17.560Z,1014.40
2018-05-24T04:48:52.945Z,1014.41
2018-05-24T04:49:28.674Z,1014.44
2018-05-24T04:50:04.072Z,1014.41
2018-05-24T04:50:41.422Z,1014.42
2018-05-24T04:51:19.329Z,1014.37
2018-05-24T04:51:57.667Z,1014.39
2018-05-24T04:52:33.063Z,1014.42
2018-05-24T04:53:08.381Z,1014.40
2018-05-24T04:53:44.002Z,1014.42
2018-05-24T04:54:19.314Z,1014.42
2018-05-24T04:54:55.518Z,1014.42
2018-05-24T04:55:30.787Z,1014.44
2018-05-24T04:56:08.375Z,1014.44
2018-05-24T04:56:43.884Z,1014.46
2018-05-24T04:57:22.957Z,1014.42
2018-05-24T04:57:58.474Z,1014.44
2018-05-24T04:58:33.770Z,1014.45
2018-05-24T04:59:09.090Z,1014.43
2018-05-24T04:59:45.389Z,1014.45
2018-05-24T05:00:20.833Z,1014.45
2018-05-24T05:00:56.129Z,1014.45
2018-05-24T05:01:32.001Z,1014.43
2018-05-24T05:02:07.240Z,1014.41
2018-05-24T05:02:42.769Z,1014.42
2018-05-24T05:03:17.864Z,1014.41
2018-05-24T05:03:53.309Z,1014.41
2018-05-24T05:04:28.618Z,1014.43
2018-05-24T05:05:03.880Z,1014.43
2018-05-24T05:05:42.404Z,1014.47
2018-05-24T05:06:17.842Z,1014.43
2018-05-24T05:06:54.042Z,1014.43
2018-05-24T05:07:30.182Z,1014.39
2018-05-24T05:08:05.751Z,1014.42
2018-05-24T05:08:41.159Z,1014.40
2018-05-24T05:09:16.267Z,1014.41
2018-05-24T05:09:55.887Z,1014.43
2018-05-24T05:10:31.186Z,1014.40
2018-05-24T05:11:09.714Z,1014.41
2018-05-24T05:11:48.112Z,1014.44
2018-05-24T05:12:23.577Z,1014.42
2018-05-24T05:13:00.115Z,1014.41
2018-05-24T05:13:35.427Z,1014.44
2018-05-24T05:14:10.599Z,1014.45
2018-05-24T05:14:45.988Z,1014.43
2018-05-24T05:15:21.269Z,1014.44
2018-05-24T05:15:56.476Z,1014.43
2018-05-24T05:16:31.973Z,1014.46
2018-05-24T05:17:07.493Z,1014.44
2018-05-24T05:17:42.592Z,1014.44
2018-05-24T05:18:22.607Z,1014.42
2018-05-24T05:18:57.901Z,1014.42
2018-05-24T05:19:33.535Z,1014.43
2018-05-24T05:20:11.506Z,1014.43
2018-05-24T05:20:47.066Z,1014.42
2018-05-24T05:21:22.707Z,1014.41
2018-05-24T05:21:59.450Z,1014.39
2018-05-24T05:22:34.772Z,1014.41
2018-05-24T05:23:13.608Z,1014.39
2018-05-24T05:23:52.595Z,1014.38
2018-05-24T05:24:31.322Z,1014.41
2018-05-24T05:25:06.528Z,1014.43
2018-05-24T05:25:42.097Z,1014.35
2018-05-24T05:26:17.492Z,1014.43
2018-05-24T05:26:52.890Z,1014.43
2018-05-24T05:27:28.378Z,1014.44
2018-05-24T05:28:04.232Z,1014.40
2018-05-24T05:28:39.564Z,1014.43
2018-05-24T05:29:15.497Z,1014.45
2018-05-24T05:29:50.836Z,1014.44
2018-05-24T05:30:26.285Z,1014.42
2018-05-24T05:31:03.979Z,1014.44
2018-05-24T05:31:39.205Z,1014.44
2018-05-24T05:32:14.596Z,1014.43
2018-05-24T05:32:50.014Z,1014.44
2018-05-24T05:33:26.750Z,1014.43
2018-05-24T05:34:02.185Z,1014.45
2018-05-24T05:34:37.688Z,1014.41
2018-05-24T05:35:13.102Z,1014.47
2018-05-24T05:35:48.737Z,1014.45
2018-05-24T05:36:24.192Z,1014.44
2018-05-24T05:37:03.798Z,1014.49
2018-05-24T05:37:39.159Z,1014.48
2018-05-24T05:38:17.657Z,1014.46
2018-05-24T05:38:52.874Z,1014.48
2018-05-24T05:39:28.384Z,1014.48
2018-05-24T05:40:03.884Z,1014.43
2018-05-24T05:40:39.393Z,1014.42
2018-05-24T05:41:18.528Z,1014.40
2018-05-24T05:41:53.625Z,1014.47
2018-05-24T05:42:32.159Z,1014.40
2018-05-24T05:43:07.453Z,1014.43
2018-05-24T05:43:44.673Z,1014.41
2018-05-24T05:44:19.767Z,1014.39
2018-05-24T05:44:55.323Z,1014.41
2018-05-24T05:45:30.656Z,1014.38
2018-05-24T05:46:05.997Z,1014.38
2018-05-24T05:46:41.323Z,1014.39
2018-05-24T05:47:16.946Z,1014.40
2018-05-24T05:47:53.456Z,1014.39
2018-05-24T05:48:28.694Z,1014.40
2018-05-24T05:49:06.526Z,1014.36
2018-05-24T05:49:41.943Z,1014.35
2018-05-24T05:50:20.075Z,1014.38
2018-05-24T05:50:55.663Z,1014.36
2018-05-24T05:51:34.079Z,1014.39
2018-05-24T05:52:09.841Z,1014.38
2018-05-24T05:52:45.237Z,1014.41
2018-05-24T05:53:20.770Z,1014.42
2018-05-24T05:53:56.069Z,1014.40
2018-05-24T05:54:31.795Z,1014.39
2018-05-24T05:55:07.120Z,1014.41
2018-05-24T05:55:43.229Z,1014.39
2018-05-24T05:56:18.745Z,1014.42
2018-05-24T05:56:54.280Z,1014.42
2018-05-24T05:57:30.480Z,1014.42
2018-05-24T05:58:06.110Z,1014.38
2018-05-24T05:58:44.520Z,1014.41
2018-05-24T05:59:19.754Z,1014.43
2018-05-24T05:59:55.145Z,1014.38
2018-05-24T06:00:30.508Z,1014.35
2018-05-24T06:01:05.704Z,1014.35
2018-05-24T06:01:41.089Z,1014.34
2018-05-24T06:02:16.211Z,1014.32
2018-05-24T06:02:51.445Z,1014.32
2018-05-24T06:03:26.842Z,1014.36
2018-05-24T06:04:02.359Z,1014.33
2018-05-24T06:04:37.915Z,1014.31
2018-05-24T06:05:13.490Z,1014.32
2018-05-24T06:05:52.199Z,1014.32
2018-05-24T06:06:27.505Z,1014.30
2018-05-24T06:07:02.806Z,1014.33
2018-05-24T06:07:38.019Z,1014.32
2018-05-24T06:08:13.303Z,1014.29
2018-05-24T06:08:48.446Z,1014.34
2018-05-24T06:09:28.059Z,1014.34
2018-05-24T06:10:03.471Z,1014.33
2018-05-24T06:10:38.792Z,1014.36
2018-05-24T06:11:14.440Z,1014.34
2018-05-24T06:11:52.714Z,1014.33
2018-05-24T06:12:28.062Z,1014.33
2018-05-24T06:13:03.260Z,1014.34
2018-05-24T06:13:38.704Z,1014.36
2018-05-24T06:14:13.912Z,1014.38
2018-05-24T06:14:49.241Z,1014.37
2018-05-24T06:15:24.945Z,1014.41
2018-05-24T06:16:00.603Z,1014.39
2018-05-24T06:16:39.113Z,1014.38
2018-05-24T06:17:14.444Z,1014.38
2018-05-24T06:17:52.948Z,1014.40
2018-05-24T06:18:31.061Z,1014.39
2018-05-24T06:19:08.962Z,1014.41
2018-05-24T06:19:44.530Z,1014.42
2018-05-24T06:20:19.897Z,1014.43
2018-05-24T06:20:57.678Z,1014.40
2018-05-24T06:21:33.210Z,1014.41
2018-05-24T06:22:08.572Z,1014.42
2018-05-24T06:22:47.086Z,1014.46
2018-05-24T06:23:25.435Z,1014.46
2018-05-24T06:24:00.765Z,1014.44
2018-05-24T06:24:36.423Z,1014.44
2018-05-24T06:25:11.728Z,1014.47
2018-05-24T06:25:47.066Z,1014.45
2018-05-24T06:26:22.762Z,1014.51
2018-05-24T06:26:58.084Z,1014.48
2018-05-24T06:27:37.198Z,1014.47
2018-05-24T06:28:12.552Z,1014.48
2018-05-24T06:28:48.253Z,1014.43
2018-05-24T06:29:23.406Z,1014.50
2018-05-24T06:29:58.732Z,1014.47
2018-05-24T06:30:38.035Z,1014.46
2018-05-24T06:31:13.164Z,1014.48
2018-05-24T06:31:48.789Z,1014.52
2018-05-24T06:32:24.497Z,1014.53
2018-05-24T06:32:59.821Z,1014.47
2018-05-24T06:33:35.544Z,1014.54
2018-05-24T06:34:12.119Z,1014.50
2018-05-24T06:34:49.820Z,1014.55
2018-05-24T06:35:25.087Z,1014.52
2018-05-24T06:36:00.269Z,1014.52
2018-05-24T06:36:35.790Z,1014.52
2018-05-24T06:37:10.916Z,1014.49
2018-05-24T06:37:46.243Z,1014.53
2018-05-24T06:38:21.983Z,1014.55
2018-05-24T06:38:57.624Z,1014.52
2018-05-24T06:39:32.909Z,1014.49
2018-05-24T06:40:08.165Z,1014.49
2018-05-24T06:40:43.744Z,1014.52
2018-05-24T06:41:18.857Z,1014.56
2018-05-24T06:41:54.374Z,1014.59
2018-05-24T06:42:29.849Z,1014.56
2018-05-24T06:43:08.358Z,1014.56
2018-05-24T06:43:43.580Z,1014.63
2018-05-24T06:44:18.874Z,1014.61
2018-05-24T06:44:54.093Z,1014.61
2018-05-24T06:45:32.420Z,1014.58
2018-05-24T06:46:08.354Z,1014.54
2018-05-24T06:46:43.750Z,1014.54
2018-05-24T06:47:19.119Z,1014.53
2018-05-24T06:47:54.612Z,1014.52
2018-05-24T06:48:30.337Z,1014.55
2018-05-24T06:49:05.627Z,1014.52
2018-05-24T06:49:44.164Z,1014.51
2018-05-24T06:50:19.689Z,1014.57
2018-05-24T06:50:58.339Z,1014.56
2018-05-24T06:51:33.860Z,1014.57
2018-05-24T06:52:11.469Z,1014.55
2018-05-24T06:52:47.068Z,1014.60
2018-05-24T06:53:22.790Z,1014.60
2018-05-24T06:53:58.273Z,1014.65
2018-05-24T06:54:34.133Z,1014.59
2018-05-24T06:55:09.567Z,1014.58
2018-05-24T06:55:48.170Z,1014.59
2018-05-24T06:56:23.461Z,1014.64
2018-05-24T06:56:58.912Z,1014.67
2018-05-24T06:57:34.425Z,1014.65
2018-05-24T06:58:09.464Z,1014.64
2018-05-24T06:58:50.367Z,1014.64
2018-05-24T06:59:26.011Z,1014.60
2018-05-24T07:00:01.746Z,1014.63
2018-05-24T07:00:41.229Z,1014.64
2018-05-24T07:01:16.544Z,1014.62
2018-05-24T07:01:51.998Z,1014.63
2018-05-24T07:02:27.189Z,1014.59
2018-05-24T07:03:02.670Z,1014.58
2018-05-24T07:03:37.972Z,1014.65
2018-05-24T07:04:14.126Z,1014.57
2018-05-24T07:04:50.829Z,1014.63
2018-05-24T07:05:26.295Z,1014.65
2018-05-24T07:06:01.672Z,1014.65
2018-05-24T07:06:36.894Z,1014.66
2018-05-24T07:07:12.212Z,1014.66
2018-05-24T07:07:47.779Z,1014.67
2018-05-24T07:08:22.997Z,1014.62
2018-05-24T07:08:58.433Z,1014.67
2018-05-24T07:09:33.851Z,1014.68
2018-05-24T07:10:09.078Z,1014.70
2018-05-24T07:10:48.815Z,1014.73
2018-05-24T07:11:24.241Z,1014.72
2018-05-24T07:12:01.936Z,1014.72
2018-05-24T07:12:43.286Z,1014.77
2018-05-24T07:13:22.003Z,1014.74
2018-05-24T07:13:57.351Z,1014.73
2018-05-24T07:14:32.481Z,1014.73
2018-05-24T07:15:08.018Z,1014.74
2018-05-24T07:15:43.895Z,1014.78
2018-05-24T07:16:18.916Z,1014.77
2018-05-24T07:16:57.462Z,1014.73
2018-05-24T07:17:35.907Z,1014.72